createdAt,value
2023-01-08T00:01:34.594Z,2.10
2023-01-08T00:04:05.972Z,1.97
2023-01-08T00:06:37.651Z,1.70
2023-01-08T00:09:10.389Z,1.97
2023-01-08T00:11:41.710Z,1.70
2023-01-08T00:14:12.967Z,1.80
2023-01-08T00:16:44.412Z,1.80
2023-01-08T00:19:15.766Z,1.93
2023-01-08T00:21:47.116Z,1.77
2023-01-08T00:24:18.480Z,2.63
2023-01-08T00:26:49.735Z,2.13
2023-01-08T00:29:20.993Z,2.13
2023-01-08T00:31:52.250Z,2.10
2023-01-08T00:34:23.583Z,1.87
2023-01-08T00:36:54.907Z,2.00
2023-01-08T00:39:26.441Z,2.17
2023-01-08T00:41:57.686Z,1.77
2023-01-08T00:44:29.091Z,2.10
2023-01-08T00:47:00.371Z,1.80
2023-01-08T00:49:31.648Z,1.93
2023-01-08T00:52:02.991Z,1.77
2023-01-08T00:54:34.249Z,2.00
2023-01-08T00:57:05.514Z,1.90
2023-01-08T00:59:36.805Z,2.43
2023-01-08T01:02:09.042Z,2.87
2023-01-08T01:04:40.478Z,2.20
2023-01-08T01:07:11.759Z,1.93
2023-01-08T01:09:43.001Z,2.07
2023-01-08T01:12:14.309Z,1.90
2023-01-08T01:14:45.657Z,2.10
2023-01-08T01:17:17.006Z,2.07
2023-01-08T01:19:48.276Z,2.30
2023-01-08T01:22:19.550Z,2.13
2023-01-08T01:24:50.842Z,2.17
2023-01-08T01:27:22.265Z,1.80
2023-01-08T01:29:53.870Z,1.90
2023-01-08T01:32:25.177Z,1.93
2023-01-08T01:34:56.432Z,1.70
2023-01-08T01:37:27.949Z,2.20
2023-01-08T01:39:59.247Z,1.93
2023-01-08T01:42:40.482Z,1.97
2023-01-08T01:45:27.564Z,1.70
2023-01-08T01:48:10.258Z,2.07
2023-01-08T01:50:48.983Z,1.63
2023-01-08T01:53:32.512Z,1.90
2023-01-08T01:56:04.898Z,1.70
2023-01-08T01:58:36.287Z,1.60
2023-01-08T02:01:09.740Z,1.97
2023-01-08T02:03:41.231Z,1.80
2023-01-08T02:06:36.437Z,1.63
2023-01-08T02:09:26.407Z,1.80
2023-01-08T02:12:30.978Z,1.77
2023-01-08T02:15:08.478Z,1.90
2023-01-08T02:18:02.922Z,1.70
2023-01-08T02:20:39.519Z,1.80
2023-01-08T02:23:25.641Z,2.03
2023-01-08T02:26:11.825Z,1.85
2023-01-08T02:28:46.301Z,1.70
2023-01-08T02:31:20.104Z,1.70
2023-01-08T02:33:51.638Z,1.70
2023-01-08T02:36:25.797Z,2.07
2023-01-08T02:39:14.333Z,1.87
2023-01-08T02:42:08.548Z,1.73
2023-01-08T02:45:15.354Z,1.30
2023-01-08T02:47:50.984Z,1.48
2023-01-08T02:50:31.454Z,1.90
2023-01-08T02:54:09.742Z,1.97
2023-01-08T02:56:46.274Z,1.63
2023-01-08T02:59:19.695Z,1.60
2023-01-08T03:01:52.323Z,1.83
2023-01-08T03:04:26.260Z,1.73
2023-01-08T03:06:57.544Z,2.00
2023-01-08T03:09:29.875Z,1.63
2023-01-08T03:12:28.963Z,1.53
2023-01-08T03:15:07.193Z,2.03
2023-01-08T03:17:49.055Z,1.50
2023-01-08T03:20:23.089Z,2.27
2023-01-08T03:22:57.053Z,2.10
2023-01-08T03:25:30.255Z,1.90
2023-01-08T03:28:06.937Z,1.53
2023-01-08T03:30:41.104Z,1.50
2023-01-08T03:33:14.789Z,1.87
2023-01-08T03:35:50.816Z,2.03
2023-01-08T03:38:28.853Z,1.60
2023-01-08T03:41:04.968Z,1.57
2023-01-08T03:43:36.401Z,1.70
2023-01-08T03:46:14.409Z,2.00
2023-01-08T03:48:46.954Z,2.10
2023-01-08T03:51:18.828Z,1.93
2023-01-08T03:53:54.286Z,1.53
2023-01-08T03:56:26.030Z,1.85
2023-01-08T03:58:57.282Z,1.60
2023-01-08T04:01:28.672Z,1.70
2023-01-08T04:04:00.098Z,1.53
2023-01-08T04:06:31.501Z,1.73
2023-01-08T04:09:03.572Z,1.97
2023-01-08T04:11:34.895Z,1.87
2023-01-08T04:14:06.257Z,1.63
2023-01-08T04:16:37.740Z,1.90
2023-01-08T04:19:11.210Z,2.10
2023-01-08T04:21:42.513Z,1.60
2023-01-08T04:24:13.850Z,1.47
2023-01-08T04:26:45.665Z,1.97
2023-01-08T04:29:16.994Z,2.07
2023-01-08T04:31:48.258Z,2.00
2023-01-08T04:34:19.652Z,2.03
2023-01-08T04:36:50.941Z,2.50
2023-01-08T04:39:22.360Z,1.70
2023-01-08T04:41:53.627Z,1.70
2023-01-08T04:44:25.082Z,1.60
2023-01-08T04:46:56.369Z,1.80
2023-01-08T04:49:27.675Z,1.40
2023-01-08T04:51:59.055Z,1.57
2023-01-08T04:54:30.323Z,1.80
2023-01-08T04:57:01.561Z,1.67
2023-01-08T04:59:32.898Z,1.60
2023-01-08T05:02:04.343Z,1.70
2023-01-08T05:04:35.742Z,1.60
2023-01-08T05:07:07.837Z,1.90
2023-01-08T05:09:39.110Z,1.50
2023-01-08T05:12:10.370Z,1.90
2023-01-08T05:14:41.654Z,1.80
2023-01-08T05:17:13.000Z,1.90
2023-01-08T05:19:44.277Z,1.60
2023-01-08T05:22:15.539Z,2.37
2023-01-08T05:24:46.862Z,1.73
2023-01-08T05:27:18.147Z,1.40
2023-01-08T05:29:50.952Z,2.20
2023-01-08T05:32:22.327Z,2.00
2023-01-08T05:34:53.603Z,1.93
2023-01-08T05:37:24.880Z,1.90
2023-01-08T05:39:56.159Z,1.53
2023-01-08T05:42:27.411Z,1.67
2023-01-08T05:44:58.702Z,1.83
2023-01-08T05:47:31.097Z,2.17
2023-01-08T05:50:02.886Z,1.97
2023-01-08T05:52:34.185Z,1.70
2023-01-08T05:55:05.918Z,1.57
2023-01-08T05:57:37.323Z,1.80
2023-01-08T06:00:10.673Z,1.70
2023-01-08T06:02:48.839Z,2.00
2023-01-08T06:05:20.231Z,1.90
2023-01-08T06:07:51.526Z,1.60
2023-01-08T06:10:22.811Z,2.17
2023-01-08T06:12:55.384Z,1.97
2023-01-08T06:15:26.679Z,2.33
2023-01-08T06:18:01.610Z,1.70
2023-01-08T06:20:32.899Z,1.57
2023-01-08T06:23:04.208Z,1.60
2023-01-08T06:25:36.841Z,1.67
2023-01-08T06:28:08.387Z,1.50
2023-01-08T06:30:39.647Z,1.80
2023-01-08T06:33:10.970Z,2.00
2023-01-08T06:35:42.435Z,2.10
2023-01-08T06:38:13.704Z,1.90
2023-01-08T06:40:46.218Z,1.70
2023-01-08T06:43:17.889Z,1.87
2023-01-08T06:45:57.876Z,1.80
2023-01-08T06:48:29.163Z,1.73
2023-01-08T06:51:01.792Z,1.60
2023-01-08T06:53:33.190Z,1.80
2023-01-08T06:56:04.887Z,2.03
2023-01-08T06:58:37.338Z,2.17
2023-01-08T07:01:13.963Z,1.93
2023-01-08T07:03:45.493Z,1.80
2023-01-08T07:06:19.408Z,1.97
2023-01-08T07:08:50.949Z,1.73
2023-01-08T07:11:22.276Z,1.90
2023-01-08T07:13:55.829Z,1.80
2023-01-08T07:16:29.689Z,1.90
2023-01-08T07:19:01.082Z,1.67
2023-01-08T07:21:32.414Z,1.77
2023-01-08T07:24:04.459Z,2.20
2023-01-08T07:26:36.334Z,1.53
2023-01-08T07:29:07.709Z,1.77
2023-01-08T07:31:39.031Z,1.90
2023-01-08T07:34:10.740Z,2.10
2023-01-08T07:36:42.024Z,1.80
2023-01-08T07:39:13.282Z,1.60
2023-01-08T07:41:44.532Z,2.07
2023-01-08T07:44:15.832Z,1.57
2023-01-08T07:46:47.185Z,2.80
2023-01-08T07:49:18.579Z,1.60
2023-01-08T07:51:49.961Z,1.83
2023-01-08T07:54:21.234Z,1.60
2023-01-08T07:56:54.631Z,2.20
2023-01-08T07:59:26.006Z,1.77
2023-01-08T08:01:57.507Z,2.00
2023-01-08T08:04:28.979Z,2.17
2023-01-08T08:07:00.320Z,1.77
2023-01-08T08:09:31.590Z,2.00
2023-01-08T08:12:03.025Z,1.80
2023-01-08T08:14:34.363Z,1.67
2023-01-08T08:17:05.714Z,2.20
2023-01-08T08:19:37.007Z,2.10
2023-01-08T08:22:08.268Z,1.93
2023-01-08T08:24:39.822Z,1.97
2023-01-08T08:27:11.112Z,2.13
2023-01-08T08:29:42.400Z,2.10
2023-01-08T08:32:13.688Z,2.23
2023-01-08T08:34:44.968Z,2.13
2023-01-08T08:37:16.583Z,2.30
2023-01-08T08:39:47.951Z,2.53
2023-01-08T08:42:19.492Z,2.30
2023-01-08T08:44:50.912Z,2.23
2023-01-08T08:47:22.237Z,2.17
2023-01-08T08:49:53.546Z,2.07
2023-01-08T08:52:24.808Z,1.77
2023-01-08T08:54:56.102Z,2.20
2023-01-08T08:57:27.610Z,1.93
2023-01-08T09:00:01.288Z,1.70
2023-01-08T09:02:33.068Z,2.40
2023-01-08T09:05:05.204Z,2.17
2023-01-08T09:07:36.749Z,2.10
2023-01-08T09:10:08.610Z,1.90
2023-01-08T09:12:39.854Z,1.57
2023-01-08T09:15:11.574Z,2.03
2023-01-08T09:17:42.906Z,2.07
2023-01-08T09:20:14.180Z,2.20
2023-01-08T09:22:45.546Z,2.10
2023-01-08T09:25:17.297Z,2.00
2023-01-08T09:27:48.593Z,1.97
2023-01-08T09:30:19.944Z,1.90
2023-01-08T09:32:51.213Z,1.63
2023-01-08T09:35:22.588Z,2.07
2023-01-08T09:37:55.811Z,1.80
2023-01-08T09:40:44.152Z,2.00
2023-01-08T09:43:19.668Z,1.80
2023-01-08T09:45:55.371Z,1.70
2023-01-08T09:48:30.951Z,1.80
2023-01-08T09:51:02.544Z,1.77
2023-01-08T09:53:33.920Z,1.93
2023-01-08T09:56:11.523Z,2.10
2023-01-08T09:58:58.973Z,2.00
2023-01-08T10:01:35.837Z,1.63
2023-01-08T10:04:23.072Z,1.80
2023-01-08T10:06:58.065Z,1.67
2023-01-08T10:09:31.288Z,2.03
2023-01-08T10:12:05.152Z,1.57
2023-01-08T10:14:39.654Z,1.60
2023-01-08T10:17:27.947Z,1.90
2023-01-08T10:19:59.369Z,1.70
2023-01-08T10:22:33.853Z,2.10
2023-01-08T10:25:09.052Z,1.63
2023-01-08T10:27:51.042Z,1.80
2023-01-08T10:30:33.166Z,1.80
2023-01-08T10:33:14.636Z,1.73
2023-01-08T10:35:54.312Z,2.00
2023-01-08T10:38:34.207Z,2.40
2023-01-08T10:41:11.057Z,2.20
2023-01-08T10:43:55.118Z,1.90
2023-01-08T10:46:37.027Z,2.10
2023-01-08T10:49:26.943Z,2.07
2023-01-08T10:51:59.500Z,2.50
2023-01-08T10:54:39.258Z,2.30
2023-01-08T10:57:28.906Z,2.40
2023-01-08T11:00:00.316Z,2.47
2023-01-08T11:02:39.209Z,2.20
2023-01-08T11:05:11.531Z,1.80
2023-01-08T11:07:43.243Z,2.83
2023-01-08T11:10:25.672Z,2.13
2023-01-08T11:12:59.982Z,2.53
2023-01-08T11:15:38.854Z,2.40
2023-01-08T11:18:19.076Z,2.53
2023-01-08T11:20:52.034Z,2.00
2023-01-08T11:23:26.468Z,1.80
2023-01-08T11:26:23.959Z,1.53
2023-01-08T11:29:14.516Z,1.77
2023-01-08T11:32:18.917Z,2.10
2023-01-08T11:34:59.254Z,1.80
2023-01-08T11:37:35.952Z,1.90
2023-01-08T11:40:15.477Z,1.53
2023-01-08T11:43:01.116Z,2.60
2023-01-08T11:45:51.325Z,3.30
2023-01-08T11:48:38.150Z,2.73
2023-01-08T11:51:48.695Z,2.20
2023-01-08T11:54:46.802Z,1.80
2023-01-08T11:57:41.435Z,2.00
2023-01-08T12:00:50.946Z,1.73
2023-01-08T12:03:35.211Z,1.53
2023-01-08T12:06:23.093Z,1.50
2023-01-08T12:09:36.211Z,1.67
2023-01-08T12:12:29.272Z,1.47
2023-01-08T12:15:14.995Z,1.50
2023-01-08T12:17:55.045Z,1.20
2023-01-08T12:20:35.127Z,1.47
2023-01-08T12:23:32.209Z,1.50
2023-01-08T12:26:33.799Z,1.27
2023-01-08T12:29:34.817Z,1.40
2023-01-08T12:32:15.344Z,1.20
2023-01-08T12:34:54.921Z,1.60
2023-01-08T12:37:33.853Z,1.50
2023-01-08T12:40:38.714Z,1.77
2023-01-08T12:43:27.095Z,1.50
2023-01-08T12:46:02.291Z,1.43
2023-01-08T12:48:36.540Z,1.17
2023-01-08T12:51:31.774Z,1.57
2023-01-08T12:54:18.369Z,1.10
2023-01-08T12:57:09.183Z,1.05
2023-01-08T12:59:49.392Z,0.90
2023-01-08T13:02:49.423Z,1.10
2023-01-08T13:05:20.742Z,1.07
2023-01-08T13:07:58.746Z,0.80
2023-01-08T13:10:56.625Z,1.20
2023-01-08T13:13:33.973Z,0.70
2023-01-08T13:16:07.787Z,0.97
2023-01-08T13:18:40.071Z,0.80
2023-01-08T13:21:12.674Z,1.33
2023-01-08T13:23:44.019Z,0.90
2023-01-08T13:26:27.708Z,1.47
2023-01-08T13:29:24.853Z,0.67
2023-01-08T13:34:42.005Z,1.03
2023-01-08T13:37:27.783Z,0.90
2023-01-08T13:39:59.468Z,0.80
2023-01-08T13:42:31.396Z,0.70
2023-01-08T13:45:04.534Z,0.80
2023-01-08T13:47:43.070Z,0.73
2023-01-08T13:50:17.907Z,1.00
2023-01-08T13:52:56.748Z,1.10
2023-01-08T13:55:30.495Z,0.87
2023-01-08T13:58:08.630Z,0.97
2023-01-08T14:00:42.973Z,0.73
2023-01-08T14:03:35.987Z,0.80
2023-01-08T14:06:18.492Z,1.20
2023-01-08T14:08:58.614Z,0.97
2023-01-08T14:11:43.092Z,1.33
2023-01-08T14:14:19.901Z,1.20
2023-01-08T14:16:53.099Z,0.80
2023-01-08T14:19:25.867Z,0.93
2023-01-08T14:22:01.570Z,1.20
2023-01-08T14:24:33.307Z,0.90
2023-01-08T14:27:07.566Z,1.07
2023-01-08T14:29:45.379Z,0.67
2023-01-08T14:32:19.756Z,1.20
2023-01-08T14:34:52.860Z,0.93
2023-01-08T14:37:24.437Z,1.10
2023-01-08T14:39:55.854Z,1.00
2023-01-08T14:42:42.124Z,1.47
2023-01-08T14:45:18.333Z,1.73
2023-01-08T14:50:37.300Z,1.40
2023-01-08T14:53:27.318Z,1.07
2023-01-08T14:55:59.537Z,1.73
2023-01-08T14:58:37.214Z,1.20
2023-01-08T15:01:23.942Z,1.30
2023-01-08T15:06:37.877Z,1.80
2023-01-08T15:09:25.079Z,1.77
2023-01-08T15:12:02.049Z,3.80
2023-01-08T15:14:36.613Z,4.17
2023-01-08T15:17:28.781Z,3.93
2023-01-08T15:20:01.433Z,1.80
2023-01-08T15:22:33.296Z,1.60
2023-01-08T15:25:07.689Z,1.53
2023-01-08T15:27:39.622Z,2.07
2023-01-08T15:30:44.460Z,1.67
2023-01-08T15:33:16.928Z,1.30
2023-01-08T15:35:49.029Z,1.20
2023-01-08T15:38:21.782Z,1.83
2023-01-08T15:40:54.781Z,1.70
2023-01-08T15:43:26.053Z,1.10
2023-01-08T15:45:57.490Z,1.27
2023-01-08T15:48:28.877Z,1.10
2023-01-08T15:51:01.238Z,1.30
2023-01-08T15:53:32.896Z,1.40
2023-01-08T15:56:04.463Z,1.80
2023-01-08T15:58:35.735Z,2.27
2023-01-08T16:01:07.054Z,1.10
2023-01-08T16:03:38.335Z,1.23
2023-01-08T16:06:10.103Z,2.00
2023-01-08T16:08:45.764Z,1.50
2023-01-08T16:11:18.618Z,1.65
2023-01-08T16:13:49.931Z,1.87
2023-01-08T16:16:21.460Z,1.50
2023-01-08T16:18:53.059Z,2.10
2023-01-08T16:21:24.307Z,2.60
2023-01-08T16:23:55.580Z,1.50
2023-01-08T16:26:26.839Z,1.43
2023-01-08T16:28:58.234Z,1.13
2023-01-08T16:31:29.512Z,1.63
2023-01-08T16:34:02.638Z,1.13
2023-01-08T16:36:35.259Z,1.30
2023-01-08T16:39:07.250Z,1.43
2023-01-08T16:41:38.600Z,2.30
2023-01-08T16:44:36.245Z,2.83
2023-01-08T16:47:07.532Z,1.93
2023-01-08T16:49:41.428Z,3.67
2023-01-08T16:52:13.262Z,2.13
2023-01-08T16:54:45.845Z,1.67
2023-01-08T16:57:17.215Z,1.63
2023-01-08T16:59:48.573Z,1.83
2023-01-08T17:02:19.928Z,0.80
2023-01-08T17:04:51.277Z,1.30
2023-01-08T17:07:22.551Z,1.90
2023-01-08T17:09:53.822Z,1.63
2023-01-08T17:12:25.154Z,0.90
2023-01-08T17:14:56.423Z,1.20
2023-01-08T17:17:27.682Z,0.93
2023-01-08T17:19:59.001Z,1.50
2023-01-08T17:22:30.521Z,1.13
2023-01-08T17:25:02.266Z,1.00
2023-01-08T17:27:37.072Z,0.73
2023-01-08T17:30:12.911Z,1.20
2023-01-08T17:32:44.370Z,1.45
2023-01-08T17:35:15.761Z,1.77
2023-01-08T17:37:47.310Z,1.43
2023-01-08T17:40:18.740Z,1.40
2023-01-08T17:42:50.149Z,1.20
2023-01-08T17:45:21.466Z,1.30
2023-01-08T17:47:52.786Z,0.90
2023-01-08T17:50:24.116Z,1.10
2023-01-08T17:52:57.253Z,1.10
2023-01-08T17:55:29.625Z,1.67
2023-01-08T17:58:00.914Z,1.10
2023-01-08T18:00:32.193Z,0.90
2023-01-08T18:03:03.627Z,1.07
2023-01-08T18:05:34.947Z,0.80
2023-01-08T18:08:06.331Z,1.20
2023-01-08T18:10:38.537Z,1.13
2023-01-08T18:13:09.898Z,1.00
2023-01-08T18:15:41.247Z,1.40
2023-01-08T18:18:12.576Z,1.80
2023-01-08T18:20:43.924Z,2.67
2023-01-08T18:23:15.416Z,1.67
2023-01-08T18:25:46.707Z,1.23
2023-01-08T18:28:18.664Z,1.13
2023-01-08T18:30:49.968Z,0.83
2023-01-08T18:33:21.255Z,1.00
2023-01-08T18:35:53.138Z,1.20
2023-01-08T18:38:24.498Z,1.13
2023-01-08T18:40:58.205Z,1.20
2023-01-08T18:43:31.408Z,1.00
2023-01-08T18:46:06.648Z,1.20
2023-01-08T18:48:38.018Z,0.80
2023-01-08T18:51:09.312Z,1.10
2023-01-08T18:53:40.574Z,2.90
2023-01-08T18:56:21.809Z,2.57
2023-01-08T18:58:53.226Z,4.13
2023-01-08T19:01:25.429Z,2.10
2023-01-08T19:03:57.171Z,2.90
2023-01-08T19:06:28.522Z,4.13
2023-01-08T19:09:00.428Z,3.60
2023-01-08T19:11:31.817Z,2.97
2023-01-08T19:14:03.183Z,2.50
2023-01-08T19:16:34.749Z,2.57
2023-01-08T19:19:06.916Z,2.77
2023-01-08T19:21:38.271Z,2.33
2023-01-08T19:24:09.828Z,2.03
2023-01-08T19:26:41.171Z,2.17
2023-01-08T19:29:12.625Z,1.40
2023-01-08T19:31:43.957Z,1.40
2023-01-08T19:34:15.352Z,1.83
2023-01-08T19:36:46.749Z,1.70
2023-01-08T19:39:18.042Z,1.67
2023-01-08T19:42:08.103Z,1.30
2023-01-08T19:44:39.596Z,1.70
2023-01-08T19:47:11.258Z,1.37
2023-01-08T19:49:47.345Z,1.23
2023-01-08T19:52:18.716Z,1.48
2023-01-08T19:54:49.991Z,1.40
2023-01-08T19:57:21.363Z,1.40
2023-01-08T19:59:52.676Z,1.40
2023-01-08T20:02:24.121Z,1.30
2023-01-08T20:04:55.516Z,0.90
2023-01-08T20:07:26.933Z,1.03
2023-01-08T20:09:58.255Z,1.50
2023-01-08T20:12:29.622Z,2.63
2023-01-08T20:15:00.938Z,1.57
2023-01-08T20:17:32.243Z,1.13
2023-01-08T20:20:03.930Z,1.27
2023-01-08T20:22:35.287Z,1.17
2023-01-08T20:25:06.987Z,1.33
2023-01-08T20:27:38.314Z,1.30
2023-01-08T20:30:10.366Z,1.20
2023-01-08T20:32:42.090Z,1.30
2023-01-08T20:35:13.431Z,1.00
2023-01-08T20:37:46.716Z,1.93
2023-01-08T20:40:18.373Z,0.83
2023-01-08T20:42:49.639Z,0.97
2023-01-08T20:45:20.920Z,1.00
2023-01-08T20:47:52.251Z,1.20
2023-01-08T20:50:24.750Z,1.60
2023-01-08T20:52:56.003Z,1.60
2023-01-08T20:55:27.360Z,0.87
2023-01-08T20:57:59.721Z,1.10
2023-01-08T21:00:32.221Z,0.80
2023-01-08T21:03:03.640Z,0.93
2023-01-08T21:05:39.413Z,0.90
2023-01-08T21:08:10.670Z,1.05
2023-01-08T21:10:42.050Z,1.00
2023-01-08T21:13:13.759Z,1.30
2023-01-08T21:15:45.041Z,2.80
2023-01-08T21:18:16.598Z,2.83
2023-01-08T21:20:48.159Z,2.50
2023-01-08T21:23:19.440Z,1.53
2023-01-08T21:25:58.872Z,1.57
2023-01-08T21:28:30.567Z,1.27
2023-01-08T21:31:10.647Z,1.17
2023-01-08T21:33:43.823Z,1.20
2023-01-08T21:36:19.890Z,0.90
2023-01-08T21:38:51.583Z,0.75
2023-01-08T21:41:42.981Z,0.80
2023-01-08T21:44:35.967Z,0.90
2023-01-08T21:47:09.790Z,0.83
2023-01-08T21:49:42.405Z,1.10
2023-01-08T21:52:32.417Z,0.90
2023-01-08T21:55:04.515Z,0.83
2023-01-08T21:57:39.648Z,1.00
2023-01-08T22:00:12.229Z,1.10
2023-01-08T22:02:43.571Z,1.17
2023-01-08T22:05:15.965Z,0.80
2023-01-08T22:07:47.235Z,0.90
2023-01-08T22:10:18.654Z,1.00
2023-01-08T22:12:49.964Z,1.00
2023-01-08T22:15:21.297Z,1.00
2023-01-08T22:17:52.563Z,1.10
2023-01-08T22:20:23.866Z,1.00
2023-01-08T22:22:55.157Z,0.90
2023-01-08T22:25:26.538Z,1.10
2023-01-08T22:27:57.805Z,1.10
2023-01-08T22:30:29.100Z,1.27
2023-01-08T22:33:00.386Z,0.93
2023-01-08T22:35:31.673Z,1.20
2023-01-08T22:38:02.929Z,1.40
2023-01-08T22:40:34.362Z,1.17
2023-01-08T22:43:05.890Z,1.20
2023-01-08T22:45:37.194Z,1.20
2023-01-08T22:48:08.475Z,1.13
2023-01-08T22:50:40.747Z,1.40
2023-01-08T22:53:12.045Z,1.00
2023-01-08T22:55:48.244Z,1.20
2023-01-08T22:58:20.707Z,1.10
2023-01-08T23:00:51.988Z,1.43
2023-01-08T23:03:23.282Z,1.17
2023-01-08T23:06:03.704Z,1.27
2023-01-08T23:08:35.245Z,1.57
2023-01-08T23:11:09.779Z,1.00
2023-01-08T23:13:41.339Z,1.03
2023-01-08T23:16:14.851Z,1.13
2023-01-08T23:18:55.566Z,1.60
2023-01-08T23:21:28.355Z,1.40
2023-01-08T23:23:59.618Z,1.47
2023-01-08T23:26:30.940Z,1.30
2023-01-08T23:29:02.288Z,1.33
2023-01-08T23:31:37.422Z,1.33
2023-01-08T23:34:08.778Z,1.40
2023-01-08T23:36:40.783Z,1.40
2023-01-08T23:39:12.122Z,1.33
2023-01-08T23:41:43.744Z,1.43
2023-01-08T23:44:16.012Z,1.20
2023-01-08T23:46:47.291Z,1.37
2023-01-08T23:49:18.616Z,1.57
2023-01-08T23:51:49.877Z,1.23
2023-01-08T23:54:22.679Z,1.70
2023-01-08T23:56:54.444Z,1.70
2023-01-08T23:59:25.745Z,1.60
